Time;durP1;ratioP1;P1;durP2;ratioP2;P2;SDS_P1;SDS_P2;PMS_P1;PMS_P2;Temp;Humidity;BMP_temperature;BMP_pressure;BME280_temperature;BME280_humidity;BME280_pressure;Samples;Min_cycle;Max_cycle;Signal;HPM_P1;HPM_P2
2023/07/31 00:00:55;;;;;;;1.33;1.20;;;;;;;19.88;63.94;99694.31;5062462;28;20255;-65
2023/07/31 00:03:23;;;;;;;1.50;1.40;;;;;;;19.87;64.10;99687.41;5059388;28;20198;-65
2023/07/31 00:05:53;;;;;;;1.42;1.33;;;;;;;19.86;63.88;99696.19;5067248;28;20211;-67
2023/07/31 00:08:21;;;;;;;1.48;1.38;;;;;;;19.85;63.91;99686.66;5068472;28;20407;-66
2023/07/31 00:10:52;;;;;;;1.60;1.38;;;;;;;19.85;63.96;99689.28;5071297;28;20292;-66
2023/07/31 00:13:20;;;;;;;2.72;1.25;;;;;;;19.79;64.07;99695.66;5068595;28;20219;-65
2023/07/31 00:15:48;;;;;;;1.65;1.55;;;;;;;19.74;64.26;99697.69;5067641;28;20209;-67
2023/07/31 00:18:16;;;;;;;3.47;1.50;;;;;;;19.68;64.28;99698.03;5069991;28;20225;-66
2023/07/31 00:20:44;;;;;;;1.35;1.25;;;;;;;19.60;64.68;99693.19;5068395;28;20671;-65
2023/07/31 00:23:14;;;;;;;1.38;1.27;;;;;;;19.55;64.88;99692.56;5066130;28;20242;-68
2023/07/31 00:25:42;;;;;;;1.50;1.40;;;;;;;19.52;65.11;99700.59;5069138;28;20205;-67
2023/07/31 00:28:11;;;;;;;2.00;1.75;;;;;;;19.52;65.28;99692.75;5069719;28;20770;-65
2023/07/31 00:30:39;;;;;;;2.35;1.63;;;;;;;19.50;65.22;99695.44;5068195;28;20660;-66
2023/07/31 00:33:07;;;;;;;1.92;1.73;;;;;;;19.45;65.56;99697.47;5064056;28;20677;-67
2023/07/31 00:35:35;;;;;;;1.80;1.65;;;;;;;19.42;65.83;99695.03;5067618;28;20229;-66
2023/07/31 00:38:03;;;;;;;1.40;1.27;;;;;;;19.39;65.85;99689.94;5063019;28;20248;-66
2023/07/31 00:40:35;;;;;;;1.42;1.33;;;;;;;19.37;65.79;99688.34;5054757;28;20213;-65
2023/07/31 00:43:04;;;;;;;1.45;1.35;;;;;;;19.35;66.20;99691.03;5069996;28;20311;-68
2023/07/31 00:45:33;;;;;;;2.55;1.55;;;;;;;19.34;66.19;99683.31;5069544;28;20201;-66
2023/07/31 00:48:02;;;;;;;2.20;1.55;;;;;;;19.35;66.31;99685.81;5070609;28;20287;-66
2023/07/31 00:50:30;;;;;;;1.45;1.35;;;;;;;19.35;66.28;99683.22;5064534;28;20233;-67
2023/07/31 00:52:59;;;;;;;2.08;1.50;;;;;;;19.35;66.12;99670.16;5055269;28;20221;-67
2023/07/31 00:55:27;;;;;;;1.50;1.40;;;;;;;19.35;66.46;99679.75;5068903;28;20198;-66
2023/07/31 00:57:57;;;;;;;1.92;1.45;;;;;;;19.31;66.46;99684.31;5069284;28;20733;-68
2023/07/31 01:00:25;;;;;;;1.65;1.40;;;;;;;19.31;66.43;99674.69;5069425;28;20232;-65
2023/07/31 01:02:53;;;;;;;1.60;1.50;;;;;;;19.34;66.67;99678.06;5069475;28;20743;-66
2023/07/31 01:05:30;;;;;;;2.15;1.45;;;;;;;19.36;66.57;99679.66;5066154;28;20212;-65
2023/07/31 01:08:06;;;;;;;5.47;1.40;;;;;;;19.37;66.27;99688.34;5069562;28;20216;-66
2023/07/31 01:10:44;;;;;;;1.90;1.75;;;;;;;19.34;66.33;99689.38;5062506;28;20704;-65
2023/07/31 01:13:13;;;;;;;2.47;1.50;;;;;;;19.33;66.53;99692.03;5069665;28;20212;-66
2023/07/31 01:15:41;;;;;;;1.50;1.40;;;;;;;19.27;66.68;99693.22;5059981;28;20212;-66
2023/07/31 01:18:09;;;;;;;2.00;1.60;;;;;;;19.23;66.83;99692.53;5068486;28;20239;-65
2023/07/31 01:20:38;;;;;;;1.80;1.70;;;;;;;19.23;67.09;99692.53;5065432;28;20209;-66
2023/07/31 01:23:47;;;;;;;1.60;1.50;;;;;;;19.22;67.27;99692.59;5064378;28;20205;-66
2023/07/31 01:31:57;;;;;;;1.58;1.48;;;;;;;19.19;67.31;99693.63;5061407;28;20233;-65
2023/07/31 01:34:26;;;;;;;2.67;1.48;;;;;;;19.19;67.42;99685.81;5044095;28;20709;-65
2023/07/31 01:36:54;;;;;;;1.42;1.30;;;;;;;19.17;67.18;99695.47;5044960;28;20203;-63
2023/07/31 01:39:22;;;;;;;1.70;1.55;;;;;;;19.15;67.50;99699.94;5037041;28;20267;-64
2023/07/31 01:41:50;;;;;;;1.80;1.70;;;;;;;19.12;67.77;99694.03;5048077;28;20255;-64
2023/07/31 01:44:18;;;;;;;2.50;1.70;;;;;;;19.10;67.82;99701.94;5048804;28;20198;-65
2023/07/31 01:46:46;;;;;;;2.67;1.80;;;;;;;19.04;67.96;99700.50;5050678;28;20210;-65
2023/07/31 01:49:16;;;;;;;1.88;1.77;;;;;;;18.94;68.42;99695.84;5044781;28;20244;-65
2023/07/31 01:51:44;;;;;;;1.90;1.70;;;;;;;18.90;68.66;99695.16;5049497;28;20198;-65
2023/07/31 01:54:12;;;;;;;4.72;1.77;;;;;;;18.91;68.61;99696.00;5048519;28;20229;-64
2023/07/31 01:56:40;;;;;;;2.55;1.85;;;;;;;18.88;68.90;99693.53;5048539;28;20202;-63
2023/07/31 01:59:08;;;;;;;2.30;2.10;;;;;;;18.78;69.11;99698.41;5049862;28;20359;-63
2023/07/31 02:01:37;;;;;;;3.55;1.83;;;;;;;18.72;69.50;99707.38;5052029;28;20656;-65
2023/07/31 02:04:04;;;;;;;1.90;1.75;;;;;;;18.70;69.41;99705.72;5049858;28;20300;-64
2023/07/31 02:06:34;;;;;;;2.15;1.95;;;;;;;18.62;69.60;99706.09;5045662;28;20660;-64
2023/07/31 02:09:02;;;;;;;1.80;1.70;;;;;;;18.56;69.97;99696.00;5047468;28;20569;-63
2023/07/31 02:11:30;;;;;;;2.20;2.00;;;;;;;18.46;70.25;99703.41;5046320;28;20214;-63
2023/07/31 02:13:58;;;;;;;2.10;1.90;;;;;;;18.43;70.35;99700.13;5044591;28;20572;-64
2023/07/31 02:16:26;;;;;;;2.00;1.80;;;;;;;18.43;70.88;99705.34;5052998;28;20219;-64
2023/07/31 02:18:54;;;;;;;2.33;2.08;;;;;;;18.43;70.81;99710.56;5052787;28;20229;-64
2023/07/31 02:21:22;;;;;;;2.00;1.80;;;;;;;18.38;70.97;99712.56;5047857;28;20198;-65
2023/07/31 02:23:51;;;;;;;1.95;1.75;;;;;;;18.35;71.07;99718.75;5042891;28;20733;-65
2023/07/31 02:26:19;;;;;;;3.20;1.67;;;;;;;18.32;71.44;99718.91;5052945;28;20858;-64
2023/07/31 02:28:47;;;;;;;2.28;2.08;;;;;;;18.33;71.40;99721.41;5052858;28;20289;-63
2023/07/31 02:31:15;;;;;;;4.03;2.20;;;;;;;18.33;71.37;99715.38;5052557;28;20210;-64
2023/07/31 02:33:43;;;;;;;2.80;2.25;;;;;;;18.32;71.64;99718.91;5053747;28;20268;-64
2023/07/31 02:36:11;;;;;;;2.60;2.40;;;;;;;18.26;71.74;99727.88;5051033;28;20206;-64
2023/07/31 02:38:39;;;;;;;2.40;2.20;;;;;;;18.24;72.06;99728.88;5046900;28;20612;-63
2023/07/31 02:41:08;;;;;;;2.30;2.10;;;;;;;18.27;71.87;99736.56;5050948;28;20206;-64
2023/07/31 02:43:36;;;;;;;2.83;2.40;;;;;;;18.26;71.88;99738.31;5047793;28;20201;-64
2023/07/31 02:46:04;;;;;;;2.63;2.20;;;;;;;18.23;72.36;99743.69;5051625;28;20205;-63
2023/07/31 02:48:33;;;;;;;4.07;2.70;;;;;;;18.27;72.10;99731.34;5051095;28;20226;-63
2023/07/31 02:51:01;;;;;;;2.55;2.20;;;;;;;18.28;72.21;99731.25;5051610;28;20233;-64
2023/07/31 02:53:29;;;;;;;4.22;2.38;;;;;;;18.31;71.93;99725.03;5050565;28;20209;-64
2023/07/31 02:55:57;;;;;;;6.28;2.45;;;;;;;18.33;71.85;99718.81;5053647;28;20225;-63
2023/07/31 02:58:26;;;;;;;2.95;2.50;;;;;;;18.35;71.62;99718.75;5049503;28;20206;-65
2023/07/31 03:00:54;;;;;;;2.70;2.50;;;;;;;18.36;71.32;99728.25;5050854;28;20198;-66
2023/07/31 03:03:22;;;;;;;3.20;2.90;;;;;;;18.37;71.48;99731.72;5049435;28;20210;-65
2023/07/31 03:05:50;;;;;;;3.40;2.45;;;;;;;18.39;71.26;99725.50;5049782;28;20252;-63
2023/07/31 03:08:18;;;;;;;3.20;2.38;;;;;;;18.43;71.11;99724.44;5050894;28;20216;-63
2023/07/31 03:10:47;;;;;;;3.83;2.10;;;;;;;18.45;70.83;99720.00;5050163;28;20648;-65
2023/07/31 03:13:15;;;;;;;4.30;2.50;;;;;;;18.48;70.63;99719.00;5049411;28;20209;-65
2023/07/31 03:15:44;;;;;;;4.18;2.25;;;;;;;18.50;70.40;99722.38;5051562;28;20568;-65
2023/07/31 03:18:14;;;;;;;3.10;2.35;;;;;;;18.52;70.57;99725.75;5055518;28;20197;-65
2023/07/31 03:20:45;;;;;;;3.42;2.10;;;;;;;18.54;70.58;99726.53;5051374;28;20198;-65
2023/07/31 03:23:13;;;;;;;3.10;2.25;;;;;;;18.56;70.13;99727.31;5052528;28;20202;-64
2023/07/31 03:25:57;;;;;;;2.45;2.00;;;;;;;18.56;70.01;99728.16;5053632;28;20578;-64
2023/07/31 03:28:25;;;;;;;4.90;2.70;;;;;;;18.54;70.03;99723.91;5062250;28;20292;-65
2023/07/31 03:30:54;;;;;;;2.55;2.35;;;;;;;18.53;70.07;99732.66;5058560;28;20200;-64
2023/07/31 03:33:22;;;;;;;2.85;2.20;;;;;;;18.55;70.09;99730.81;5051927;28;20296;-64
2023/07/31 03:35:50;;;;;;;3.67;2.47;;;;;;;18.59;69.70;99732.34;5053579;28;20213;-63
2023/07/31 03:38:18;;;;;;;2.60;2.40;;;;;;;18.65;69.85;99747.72;5051077;28;20303;-63
2023/07/31 03:40:46;;;;;;;2.53;2.33;;;;;;;18.70;69.06;99745.69;5052952;28;20205;-65
2023/07/31 03:43:16;;;;;;;2.17;2.08;;;;;;;18.74;69.39;99741.22;5054731;28;20567;-64
2023/07/31 03:45:44;;;;;;;4.28;2.30;;;;;;;18.75;69.24;99741.16;5050919;28;20277;-64
2023/07/31 03:48:15;;;;;;;2.33;2.15;;;;;;;18.73;69.26;99747.34;5052411;28;20206;-64
2023/07/31 03:50:43;;;;;;;3.30;2.30;;;;;;;18.72;69.39;99748.28;5050033;28;20541;-65
2023/07/31 03:53:11;;;;;;;4.25;2.17;;;;;;;18.72;69.20;99750.91;5050766;28;20584;-64
2023/07/31 03:55:39;;;;;;;3.72;2.25;;;;;;;18.71;69.13;99757.88;5048650;28;20225;-63
2023/07/31 03:58:07;;;;;;;3.40;2.50;;;;;;;18.69;69.59;99762.28;5056944;28;20202;-64
2023/07/31 04:00:36;;;;;;;2.63;2.35;;;;;;;18.67;69.17;99755.44;5049953;28;20198;-65
2023/07/31 04:03:04;;;;;;;2.75;2.45;;;;;;;18.66;69.42;99770.28;5050932;28;20225;-64
2023/07/31 04:05:34;;;;;;;2.50;2.22;;;;;;;18.66;69.62;99769.44;5050039;28;20209;-64
2023/07/31 04:08:02;;;;;;;2.10;1.90;;;;;;;18.64;69.35;99772.13;5055956;28;20233;-63
2023/07/31 04:10:33;;;;;;;3.40;2.25;;;;;;;18.60;69.47;99773.19;5055115;28;20775;-64
2023/07/31 04:13:01;;;;;;;4.65;2.30;;;;;;;18.62;69.58;99773.94;5047789;28;20612;-64
2023/07/31 04:15:29;;;;;;;3.47;2.30;;;;;;;18.63;69.51;99774.78;5049902;28;20260;-64
2023/07/31 04:17:57;;;;;;;4.90;2.22;;;;;;;18.65;69.52;99773.81;5048779;28;20202;-64
2023/07/31 04:20:25;;;;;;;3.88;2.42;;;;;;;18.62;69.68;99773.94;5048446;28;20244;-65
2023/07/31 04:22:54;;;;;;;3.60;2.47;;;;;;;18.58;69.45;99775.88;5049492;28;20494;-65
2023/07/31 04:25:22;;;;;;;4.32;2.13;;;;;;;18.56;69.71;99785.56;5048894;28;20256;-65
2023/07/31 04:27:50;;;;;;;5.00;2.30;;;;;;;18.56;69.93;99782.09;5051769;28;20674;-65
2023/07/31 04:30:18;;;;;;;3.88;2.30;;;;;;;18.52;69.63;99781.41;5053967;28;20202;-63
2023/07/31 04:32:46;;;;;;;2.17;2.00;;;;;;;18.53;69.68;99790.91;5049911;28;20315;-64
2023/07/31 04:35:14;;;;;;;2.95;2.35;;;;;;;18.53;69.94;99784.84;5047221;28;20672;-64
2023/07/31 04:37:42;;;;;;;2.30;2.10;;;;;;;18.56;69.50;99795.16;5045284;28;20259;-63
2023/07/31 04:40:12;;;;;;;2.97;2.42;;;;;;;18.59;69.13;99794.97;5049160;28;20206;-64
2023/07/31 04:42:40;;;;;;;4.28;2.00;;;;;;;18.59;69.27;99795.84;5049095;28;20560;-64
2023/07/31 04:45:10;;;;;;;3.40;2.13;;;;;;;18.62;69.09;99794.81;5049871;28;20219;-64
2023/07/31 04:47:38;;;;;;;3.60;2.50;;;;;;;18.60;69.06;99791.47;5049287;28;20641;-64
2023/07/31 04:50:07;;;;;;;3.80;2.33;;;;;;;18.59;69.22;99792.38;5050049;28;20288;-66
2023/07/31 04:52:35;;;;;;;3.50;2.20;;;;;;;18.61;69.17;99790.53;5053636;28;20204;-64
2023/07/31 04:55:03;;;;;;;5.43;2.45;;;;;;;18.66;68.93;99793.75;5051934;28;20243;-64
2023/07/31 04:57:33;;;;;;;4.88;2.33;;;;;;;18.67;68.96;99797.22;5048786;28;20539;-64
2023/07/31 05:00:00;;;;;;;2.80;2.20;;;;;;;18.63;68.75;99791.31;5050118;28;20232;-65
2023/07/31 05:02:29;;;;;;;3.65;2.42;;;;;;;18.65;69.08;99786.84;5045717;28;20206;-65
2023/07/31 05:04:57;;;;;;;2.88;2.47;;;;;;;18.68;68.59;99789.31;5046612;28;20283;-64
2023/07/31 05:07:25;;;;;;;4.75;2.53;;;;;;;18.74;68.72;99793.41;5045899;28;20570;-65
2023/07/31 05:09:53;;;;;;;3.35;2.35;;;;;;;18.76;68.62;99795.03;5056962;28;20232;-63
2023/07/31 05:12:26;;;;;;;2.83;2.53;;;;;;;18.78;68.48;99800.19;5049761;28;20208;-65
2023/07/31 05:14:56;;;;;;;2.55;2.35;;;;;;;18.78;68.41;99797.59;5052146;28;20201;-64
2023/07/31 05:17:24;;;;;;;4.40;2.60;;;;;;;18.77;68.35;99804.53;5052870;28;20668;-63
2023/07/31 05:19:52;;;;;;;2.80;2.45;;;;;;;18.77;68.30;99804.53;5051175;28;20660;-63
2023/07/31 05:22:20;;;;;;;3.28;2.75;;;;;;;18.79;68.08;99802.72;5045553;28;20236;-65
2023/07/31 05:24:48;;;;;;;4.75;2.58;;;;;;;18.82;68.01;99807.78;5051600;28;20213;-63
2023/07/31 05:27:18;;;;;;;6.10;2.25;;;;;;;18.84;67.68;99805.09;5044650;28;20652;-66
2023/07/31 05:29:46;;;;;;;4.38;2.50;;;;;;;18.87;67.98;99809.34;5052400;28;20280;-64
2023/07/31 05:32:15;;;;;;;3.45;2.38;;;;;;;18.89;67.71;99802.25;5047519;28;20287;-63
2023/07/31 05:34:43;;;;;;;3.22;2.13;;;;;;;18.94;67.91;99815.94;5051096;28;20233;-65
2023/07/31 05:37:12;;;;;;;4.35;2.15;;;;;;;18.82;67.91;99813.00;5056922;28;20214;-63
2023/07/31 05:39:40;;;;;;;5.25;2.42;;;;;;;18.81;68.14;99821.78;5050073;28;20206;-63
2023/07/31 05:42:08;;;;;;;4.85;2.47;;;;;;;18.86;67.85;99823.31;5048435;28;20202;-63
2023/07/31 05:44:36;;;;;;;2.65;2.45;;;;;;;18.89;67.82;99823.13;5049637;28;20208;-63
2023/07/31 05:47:04;;;;;;;3.25;2.15;;;;;;;18.90;67.80;99824.84;5048746;28;20206;-63
2023/07/31 05:49:34;;;;;;;3.75;2.13;;;;;;;18.91;68.17;99822.16;5044604;28;20240;-62
2023/07/31 05:52:01;;;;;;;3.03;2.30;;;;;;;18.90;67.67;99819.63;5046545;28;20690;-63
2023/07/31 05:54:29;;;;;;;6.03;2.47;;;;;;;18.88;67.76;99818.84;5049005;28;20198;-64
2023/07/31 05:56:57;;;;;;;2.55;1.70;;;;;;;18.92;67.80;99829.06;5052630;28;20680;-63
2023/07/31 05:59:25;;;;;;;3.22;2.05;;;;;;;18.92;67.47;99836.03;5048167;28;20194;-65
2023/07/31 06:01:54;;;;;;;2.63;1.88;;;;;;;18.86;67.89;99837.22;5048357;28;20202;-64
2023/07/31 06:04:22;;;;;;;6.90;2.38;;;;;;;18.88;68.03;99842.34;5052392;28;20206;-63
2023/07/31 06:06:53;;;;;;;3.05;2.00;;;;;;;18.91;67.64;99839.59;5045441;28;20202;-64
2023/07/31 06:09:22;;;;;;;4.55;2.50;;;;;;;18.93;67.08;99845.59;5047878;28;20202;-63
2023/07/31 06:11:51;;;;;;;2.60;1.92;;;;;;;18.88;67.10;99840.56;5050780;28;20668;-66
2023/07/31 06:14:19;;;;;;;4.05;2.10;;;;;;;18.92;66.90;99851.72;5046210;28;20605;-63
2023/07/31 06:16:47;;;;;;;1.98;1.70;;;;;;;18.98;66.82;99848.81;5053696;28;20230;-63
2023/07/31 06:19:15;;;;;;;2.65;2.20;;;;;;;18.99;66.45;99848.72;5053442;28;20253;-62
2023/07/31 06:21:43;;;;;;;2.55;2.00;;;;;;;19.01;65.93;99853.88;5049675;28;20205;-63
2023/07/31 06:24:13;;;;;;;5.82;2.35;;;;;;;18.98;66.40;99851.41;5053416;28;20210;-62
2023/07/31 06:26:41;;;;;;;3.50;2.30;;;;;;;18.96;67.17;99856.72;5045857;28;20210;-63
2023/07/31 06:29:10;;;;;;;1.80;1.65;;;;;;;18.96;67.48;99861.94;5054126;28;20228;-62
2023/07/31 06:31:38;;;;;;;3.72;2.15;;;;;;;18.92;67.67;99854.31;5049630;28;20248;-63
2023/07/31 06:34:06;;;;;;;2.60;2.10;;;;;;;18.87;67.86;99849.34;5053462;28;20214;-64
2023/07/31 06:36:34;;;;;;;2.83;2.05;;;;;;;18.83;68.19;99845.19;5052327;28;20248;-62
2023/07/31 06:39:02;;;;;;;2.65;2.45;;;;;;;18.79;68.48;99849.72;5053278;28;20210;-63
2023/07/31 06:41:32;;;;;;;4.80;2.50;;;;;;;18.67;68.97;99852.88;5051784;28;20285;-63
2023/07/31 06:44:00;;;;;;;3.20;2.45;;;;;;;18.62;69.79;99857.47;5052289;28;20228;-64
2023/07/31 06:46:28;;;;;;;3.42;2.17;;;;;;;18.62;69.77;99860.06;5048904;28;20202;-63
2023/07/31 06:48:56;;;;;;;4.35;2.35;;;;;;;18.55;69.63;99856.06;5053077;28;20213;-62
2023/07/31 06:51:24;;;;;;;4.10;2.33;;;;;;;18.49;70.22;99854.59;5047604;28;20974;-65
2023/07/31 06:53:52;;;;;;;3.88;2.45;;;;;;;18.56;70.16;99863.00;5053523;28;20210;-62
2023/07/31 06:56:21;;;;;;;3.75;2.08;;;;;;;18.61;70.10;99865.38;5051775;28;20214;-66
2023/07/31 06:58:51;;;;;;;4.03;2.47;;;;;;;18.60;69.64;99861.94;5049732;28;20289;-63
2023/07/31 07:01:19;;;;;;;3.50;2.30;;;;;;;18.62;69.97;99862.69;5054038;28;20625;-63
2023/07/31 07:03:47;;;;;;;2.67;2.30;;;;;;;18.67;69.44;99863.31;5047531;28;20599;-62
2023/07/31 07:06:15;;;;;;;8.18;2.90;;;;;;;18.67;69.40;99865.06;5054709;28;20241;-63
2023/07/31 07:08:43;;;;;;;4.57;2.22;;;;;;;18.64;69.39;99854.81;5052434;28;20260;-65
2023/07/31 07:11:11;;;;;;;4.28;2.10;;;;;;;18.74;69.26;99854.31;5052325;28;20198;-63
2023/07/31 07:13:39;;;;;;;2.95;2.50;;;;;;;19.02;69.08;99866.00;5048143;28;20202;-64
2023/07/31 07:16:10;;;;;;;5.35;2.70;;;;;;;19.54;66.90;99860.78;5052325;28;20210;-64
2023/07/31 07:18:38;;;;;;;5.35;2.90;;;;;;;20.16;64.75;99856.63;5050250;28;20656;-63
2023/07/31 07:21:25;;;;;;;6.72;2.47;;;;;;;20.46;62.52;99859.34;5048388;28;20201;-63
2023/07/31 07:23:53;;;;;;;4.28;2.40;;;;;;;20.76;62.10;99858.59;5051648;28;20233;-65
2023/07/31 07:26:21;;;;;;;3.05;2.17;;;;;;;21.15;59.66;99859.88;5052666;28;20209;-64
2023/07/31 07:28:49;;;;;;;3.85;2.30;;;;;;;21.73;59.38;99859.06;5049721;28;20675;-63
2023/07/31 07:31:18;;;;;;;2.88;2.17;;;;;;;22.89;57.35;99850.88;5048969;28;20206;-64
2023/07/31 07:34:12;;;;;;;4.35;2.30;;;;;;;24.29;49.94;99840.38;5047965;28;20208;-67
2023/07/31 07:36:40;;;;;;;3.50;2.03;;;;;;;25.20;48.05;99837.25;5046859;28;20238;-64
2023/07/31 07:39:11;;;;;;;4.03;2.38;;;;;;;26.14;46.07;99837.94;5045512;28;20672;-64
2023/07/31 07:41:39;;;;;;;3.85;2.10;;;;;;;26.32;45.51;99835.63;5047483;28;20230;-64
2023/07/31 07:44:09;;;;;;;4.22;2.20;;;;;;;26.18;45.72;99834.09;5054685;28;20212;-64
2023/07/31 07:46:38;;;;;;;4.38;1.80;;;;;;;26.10;44.19;99839.13;5051070;28;20197;-66
2023/07/31 07:49:07;;;;;;;3.13;1.88;;;;;;;25.75;45.44;99834.81;5057171;28;20254;-64
2023/07/31 07:51:35;;;;;;;3.58;2.05;;;;;;;25.57;45.75;99842.38;5052164;28;20202;-64
2023/07/31 07:54:03;;;;;;;3.42;2.00;;;;;;;25.46;45.69;99843.19;5047715;28;20586;-63
2023/07/31 07:56:31;;;;;;;3.45;1.70;;;;;;;25.21;45.92;99843.38;5048360;28;20202;-65
2023/07/31 07:58:59;;;;;;;5.63;2.00;;;;;;;24.82;46.41;99854.13;5048375;28;20216;-63
2023/07/31 08:01:27;;;;;;;2.92;2.40;;;;;;;25.09;47.04;99849.56;5050590;28;20760;-63
2023/07/31 08:03:56;;;;;;;5.78;2.20;;;;;;;25.36;45.56;99847.47;5045740;28;20285;-64
2023/07/31 08:06:24;;;;;;;4.05;2.00;;;;;;;25.14;45.50;99842.16;5049578;28;20216;-62
2023/07/31 08:08:52;;;;;;;2.97;1.75;;;;;;;25.03;45.43;99850.84;5045527;28;20664;-65
2023/07/31 08:11:21;;;;;;;2.90;1.98;;;;;;;25.60;44.74;99843.94;5046906;28;20731;-66
2023/07/31 08:13:49;;;;;;;2.40;1.67;;;;;;;27.11;42.61;99829.13;5046870;28;20295;-63
2023/07/31 08:16:17;;;;;;;4.15;1.83;;;;;;;28.20;39.46;99826.84;5046988;28;20198;-64
2023/07/31 08:18:45;;;;;;;2.45;1.55;;;;;;;28.99;38.48;99826.84;5060177;28;20245;-63
2023/07/31 08:21:15;;;;;;;3.40;2.10;;;;;;;29.81;36.75;99831.53;5045328;28;20206;-64
2023/07/31 08:23:43;;;;;;;2.97;1.77;;;;;;;30.13;34.89;99827.63;5050993;28;20194;-63
2023/07/31 08:26:16;;;;;;;2.60;2.10;;;;;;;29.66;35.18;99828.53;5052857;28;20201;-65
2023/07/31 08:28:44;;;;;;;2.20;1.65;;;;;;;29.11;36.10;99825.72;5042760;28;20671;-63
2023/07/31 08:31:12;;;;;;;3.65;1.67;;;;;;;28.11;37.15;99829.34;5049344;28;20228;-64
2023/07/31 08:33:41;;;;;;;2.05;1.85;;;;;;;27.35;38.57;99835.97;5054075;28;20209;-65
2023/07/31 08:36:09;;;;;;;5.30;1.98;;;;;;;26.67;40.18;99840.72;5049755;28;20228;-63
2023/07/31 08:38:38;;;;;;;3.22;1.67;;;;;;;25.92;41.75;99839.66;5049054;28;20222;-64
2023/07/31 08:41:09;;;;;;;3.55;1.90;;;;;;;25.46;43.12;99837.91;5043862;28;20621;-62
2023/07/31 08:43:38;;;;;;;3.15;1.95;;;;;;;25.15;42.87;99828.88;5043596;28;20276;-63
2023/07/31 08:46:08;;;;;;;4.32;2.15;;;;;;;25.07;43.59;99836.47;5051774;28;20216;-62
2023/07/31 08:48:38;;;;;;;4.22;1.88;;;;;;;24.65;43.96;99840.50;5052319;28;20665;-65
2023/07/31 08:51:07;;;;;;;3.30;1.92;;;;;;;24.43;44.30;99836.78;5048752;28;20308;-62
2023/07/31 08:53:35;;;;;;;4.80;2.00;;;;;;;24.39;44.92;99835.34;5050389;28;20309;-62
2023/07/31 08:56:10;;;;;;;3.13;2.25;;;;;;;24.48;45.48;99839.09;5047044;28;20644;-62
2023/07/31 08:58:39;;;;;;;2.17;1.73;;;;;;;24.49;44.87;99833.72;5048886;28;20677;-62
2023/07/31 09:01:08;;;;;;;3.80;2.03;;;;;;;24.60;45.23;99835.59;5048468;28;20217;-62
2023/07/31 09:03:40;;;;;;;2.83;2.10;;;;;;;24.82;44.24;99830.41;5048663;28;20607;-62
2023/07/31 09:06:09;;;;;;;2.42;1.70;;;;;;;24.90;43.63;99834.28;5046786;28;20213;-63
2023/07/31 09:08:42;;;;;;;2.95;1.55;;;;;;;24.80;42.44;99828.84;5049074;28;20212;-63
2023/07/31 09:11:13;;;;;;;8.93;2.15;;;;;;;24.89;43.07;99836.06;5050464;28;20301;-61
2023/07/31 09:13:42;;;;;;;5.18;2.20;;;;;;;24.86;43.13;99838.94;5050779;28;20198;-61
2023/07/31 09:16:10;;;;;;;2.85;1.80;;;;;;;24.88;43.25;99837.00;5050901;28;20240;-62
2023/07/31 09:18:54;;;;;;;6.97;2.08;;;;;;;24.96;43.15;99839.91;5048521;28;20213;-62
2023/07/31 09:21:22;;;;;;;3.63;1.77;;;;;;;24.96;42.62;99842.53;5046377;28;20660;-63
2023/07/31 09:23:52;;;;;;;1.90;1.60;;;;;;;24.64;42.61;99841.47;5047007;28;20198;-62
2023/07/31 09:26:33;;;;;;;4.03;1.58;;;;;;;24.40;44.35;99841.44;5047454;28;20198;-62
2023/07/31 09:29:04;;;;;;;2.33;1.60;;;;;;;24.48;43.55;99833.81;5049042;28;20197;-63
2023/07/31 09:31:34;;;;;;;2.53;1.63;;;;;;;24.49;42.79;99836.38;5054708;28;20229;-61
2023/07/31 09:34:02;;;;;;;3.65;1.70;;;;;;;24.37;43.48;99842.47;5051794;28;20794;-62
2023/07/31 09:36:31;;;;;;;2.85;1.88;;;;;;;24.26;43.85;99837.97;5054481;28;20300;-62
2023/07/31 09:39:03;;;;;;;3.13;1.73;;;;;;;24.52;43.21;99838.78;5047661;28;20217;-62
2023/07/31 09:41:38;;;;;;;3.65;1.70;;;;;;;24.94;42.93;99838.34;5048238;28;20603;-63
2023/07/31 09:44:06;;;;;;;3.20;1.35;;;;;;;25.77;41.03;99828.47;5049229;28;20208;-62
2023/07/31 09:46:37;;;;;;;7.68;2.03;;;;;;;26.93;38.74;99835.94;5053691;28;20217;-67
2023/07/31 09:49:07;;;;;;;1.98;1.45;;;;;;;27.36;37.26;99825.25;5050672;28;20232;-63
2023/07/31 09:51:38;;;;;;;4.25;2.15;;;;;;;26.67;37.79;99830.16;5051846;28;20209;-62
2023/07/31 09:54:13;;;;;;;3.55;1.73;;;;;;;26.90;37.53;99836.19;5052154;28;20215;-61
2023/07/31 09:56:45;;;;;;;2.50;1.50;;;;;;;28.36;35.79;99833.31;5049920;28;20205;-62
2023/07/31 09:59:15;;;;;;;1.73;1.55;;;;;;;28.50;34.34;99828.59;5051592;28;20581;-62
2023/07/31 10:01:45;;;;;;;3.67;1.45;;;;;;;29.02;33.93;99818.63;5048396;28;20312;-62
2023/07/31 10:04:14;;;;;;;4.07;1.73;;;;;;;30.04;32.08;99824.84;5049780;28;20210;-61
2023/07/31 10:06:46;;;;;;;3.10;1.70;;;;;;;30.94;30.09;99819.66;5048736;28;20205;-64
2023/07/31 10:09:19;;;;;;;1.88;1.30;;;;;;;31.05;29.22;99811.41;5043150;28;20664;-63
2023/07/31 10:11:55;;;;;;;1.17;1.08;;;;;;;29.84;30.22;99824.13;5050079;28;20197;-62
2023/07/31 10:14:25;;;;;;;1.73;1.30;;;;;;;29.63;30.49;99812.03;5049741;28;20198;-62
2023/07/31 10:17:05;;;;;;;4.25;1.17;;;;;;;29.77;30.42;99823.03;5050136;28;20202;-62
2023/07/31 10:19:35;;;;;;;1.60;1.15;;;;;;;29.10;30.91;99821.38;5051505;28;20252;-61
2023/07/31 10:22:10;;;;;;;3.00;1.40;;;;;;;29.17;31.75;99819.84;5052846;28;20202;-63
2023/07/31 10:24:43;;;;;;;5.13;1.35;;;;;;;29.68;30.03;99813.28;5040489;28;20287;-61
2023/07/31 10:27:14;;;;;;;2.33;1.30;;;;;;;29.63;30.48;99802.25;5051480;28;20252;-61
2023/07/31 10:29:44;;;;;;;2.88;1.38;;;;;;;29.69;29.60;99817.63;5050915;28;20324;-61
2023/07/31 10:32:13;;;;;;;3.33;1.20;;;;;;;28.70;30.56;99819.72;5048583;28;20309;-63
2023/07/31 10:34:42;;;;;;;2.25;1.13;;;;;;;27.94;31.77;99814.94;5050350;28;20208;-62
2023/07/31 10:37:24;;;;;;;1.70;1.15;;;;;;;27.21;32.70;99823.91;5047187;28;20205;-61
2023/07/31 10:39:58;;;;;;;2.78;1.27;;;;;;;27.86;32.19;99811.28;5050711;28;20221;-63
2023/07/31 10:42:31;;;;;;;2.15;1.23;;;;;;;28.68;30.75;99816.34;5047931;28;20212;-63
2023/07/31 10:45:01;;;;;;;3.55;1.30;;;;;;;29.32;29.53;99814.91;5048628;28;20202;-62
2023/07/31 10:47:29;;;;;;;1.63;1.20;;;;;;;29.22;29.43;99814.94;5051398;28;20675;-62
2023/07/31 10:50:14;;;;;;;2.30;1.00;;;;;;;28.58;29.24;99816.38;5052289;28;20220;-62
2023/07/31 10:52:45;;;;;;;1.73;0.95;;;;;;;28.50;29.70;99823.31;5051622;28;20663;-63
2023/07/31 10:55:24;;;;;;;4.13;1.20;;;;;;;28.60;29.75;99813.56;5051744;28;20640;-62
2023/07/31 10:57:54;;;;;;;2.05;1.10;;;;;;;28.96;28.59;99816.47;5049180;28;20205;-61
2023/07/31 11:00:25;;;;;;;2.40;0.98;;;;;;;29.35;28.08;99819.94;5052342;28;20297;-62
2023/07/31 11:03:00;;;;;;;1.75;1.08;;;;;;;29.23;28.34;99803.31;5052205;28;20289;-62
2023/07/31 11:05:49;;;;;;;1.17;1.08;;;;;;;28.90;28.60;99815.22;5048887;28;20233;-64
2023/07/31 11:08:19;;;;;;;2.08;1.13;;;;;;;28.14;29.36;99820.31;5051195;28;20285;-61
2023/07/31 11:10:48;;;;;;;1.70;0.90;;;;;;;27.97;30.44;99807.72;5048654;28;20199;-62
2023/07/31 11:13:17;;;;;;;1.65;0.88;;;;;;;28.56;30.13;99815.66;5048929;28;20204;-61
2023/07/31 11:15:46;;;;;;;2.03;1.00;;;;;;;28.98;29.19;99806.56;5049010;28;20208;-63
2023/07/31 11:18:15;;;;;;;1.88;0.88;;;;;;;29.09;28.04;99809.94;5046632;28;20578;-62
2023/07/31 11:20:43;;;;;;;2.92;1.10;;;;;;;28.61;29.09;99804.63;5045543;28;20202;-62
2023/07/31 11:23:12;;;;;;;2.00;1.40;;;;;;;28.45;29.91;99810.47;5045634;28;20197;-60
2023/07/31 11:25:41;;;;;;;1.20;0.73;;;;;;;28.51;29.46;99809.09;5044238;28;20706;-62
2023/07/31 11:28:11;;;;;;;1.23;1.02;;;;;;;28.34;29.77;99813.22;5047548;28;20210;-62
2023/07/31 11:30:42;;;;;;;1.40;1.00;;;;;;;28.00;30.13;99812.75;5050820;28;20279;-63
2023/07/31 11:33:11;;;;;;;3.38;1.08;;;;;;;27.42;30.33;99806.19;5046898;28;20273;-63
2023/07/31 11:35:44;;;;;;;0.95;0.90;;;;;;;26.98;31.04;99804.66;5043397;28;20302;-61
2023/07/31 11:38:13;;;;;;;3.15;1.23;;;;;;;26.13;33.88;99804.56;5046387;28;20660;-61
2023/07/31 11:40:45;;;;;;;2.30;0.90;;;;;;;25.62;34.43;99810.34;5047147;28;20798;-62
2023/07/31 11:43:16;;;;;;;1.90;0.88;;;;;;;25.47;34.81;99815.00;5044775;28;20260;-67
2023/07/31 11:45:48;;;;;;;3.40;1.02;;;;;;;25.39;34.47;99815.59;5047870;28;20313;-63
2023/07/31 11:48:21;;;;;;;1.88;1.15;;;;;;;25.37;34.79;99811.38;5046017;28;20267;-61
2023/07/31 11:50:51;;;;;;;1.27;0.75;;;;;;;25.21;34.38;99811.72;5044157;28;20293;-62